This is the latest recevied weather packets stored in our database for station/object W0DXV. If no packets are shown the sender has not sent any weather packets the latest 1 day(s).
| Time | Temp. | Humidity | Pressure | Rain* | Wind** | Luminosity | Snow |
|---|---|---|---|---|---|---|---|
| 1836274773 | 17.22° C | 97% | 1014.4 hPa | 0 mm | 0 m/s | 0 W/m² | - |
| 1836274470 | 17.22° C | 97% | 1014.4 hPa | 0 mm | 0 m/s | 0 W/m² | - |
| 1836274324 | 17.22° C | 97% | 1014.4 hPa | 0 mm | 0 m/s | 0 W/m² | - |
| 1836274168 | 17.22° C | 97% | 1014.2 hPa | 0 mm | 0 m/s | 0 W/m² | - |
| 1836273863 | 17.22° C | 97% | 1014.2 hPa | 0 mm | 0 m/s | 0 W/m² | - |
| 1778100273 | 22.22° C | 79% | 1008.2 hPa | 0 mm | 0.89 m/s, 226° | 152 W/m² | - |
| 1778099970 | 22.78° C | 78% | 1008.4 hPa | 0 mm | 0.45 m/s, 253° | 197 W/m² | - |
| 1778099667 | 22.78° C | 76% | 1008.3 hPa | 0 mm | 0.89 m/s, 277° | 215 W/m² | - |
| 1778099364 | 22.78° C | 76% | 1008.5 hPa | 0 mm | 0.89 m/s, 264° | 205 W/m² | - |
| 1778099061 | 22.78° C | 78% | 1008.7 hPa | 0 mm | 0.45 m/s, 266° | 200 W/m² | - |
| 1778098757 | 22.78° C | 78% | 1008.6 hPa | 0 mm | 1.34 m/s, 210° | 472 W/m² | - |
| 1778098455 | 22.78° C | 76% | 1008.3 hPa | 0 mm | 0.45 m/s, 302° | 324 W/m² | - |
| 1778098151 | 22.78° C | 77% | 1008.6 hPa | 0 mm | 0.45 m/s, 257° | 330 W/m² | - |
| 1778097847 | 22.78° C | 78% | 1008.5 hPa | 0 mm | 1.34 m/s, 250° | 277 W/m² | - |
| 1778097544 | 21.67° C | 79% | 1008.4 hPa | 0 mm | 0.45 m/s, 253° | 472 W/m² | - |
| 1778097241 | 21.67° C | 80% | 1008.5 hPa | 0 mm | 1.34 m/s, 231° | 491 W/m² | - |
| 1778096938 | 21.67° C | 80% | 1008.5 hPa | 0 mm | 0.89 m/s, 254° | 347 W/m² | - |
| 1778096635 | 21.67° C | 84% | 1008.3 hPa | 0 mm | 0.45 m/s, 244° | 337 W/m² | - |
| 1778096332 | 21.67° C | 82% | 1008.2 hPa | 0 mm | 0.45 m/s, 270° | 384 W/m² | - |
| 1778096029 | 21.67° C | 82% | 1008.4 hPa | 0 mm | 1.34 m/s, 218° | 460 W/m² | - |
| 1778095725 | 21.11° C | 84% | 1009 hPa | 0 mm | 0.89 m/s, 246° | 600 W/m² | - |
| 1778095422 | 20.56° C | 85% | 1008.6 hPa | 0 mm | 0.45 m/s, 255° | 428 W/m² | - |
| 1778095119 | 20.56° C | 86% | 1008.8 hPa | 0 mm | 0.89 m/s, 230° | 385 W/m² | - |
| 1778094815 | 20° C | 87% | 1008.6 hPa | 0 mm | 0.89 m/s, 233° | 348 W/m² | - |
| 1778094512 | 20° C | 86% | 1008.4 hPa | 0 mm | 0.89 m/s, 224° | 456 W/m² | - |
* Rain latest hour (hover to see other rain measurements)
** Current wind speed in m/s (hover to see current wind gust speed)